This is the latest recevied weather packets stored in our database for station/object K3HW. If no packets are shown the sender has not sent any weather packets the latest 10 day(s).
| Time | Temp. | Humidity | Pressure | Rain* | Wind** | Luminosity | Snow |
|---|---|---|---|---|---|---|---|
| 1777588672 | 11.67° C | 82% | 1012.4 hPa | 7.87 mm | - | 13 W/m² | - |
| 1777588368 | 12.22° C | 80% | 1012.4 hPa | 3.05 mm | - | 8 W/m² | - |
| 1777588064 | 14.44° C | 74% | 1012 hPa | 0 mm | - | 5 W/m² | - |
| 1777587760 | 16.11° C | 57% | 1011.6 hPa | 0 mm | - | 3 W/m² | - |
| 1777587459 | 16.11° C | 56% | 1011.5 hPa | 0 mm | - | 13 W/m² | - |
| 1777587156 | 16.11° C | 56% | 1011.6 hPa | 0 mm | - | 21 W/m² | - |
| 1777586851 | 16.11° C | 57% | 1011.2 hPa | 0 mm | - | 42 W/m² | - |
| 1777586547 | 16.11° C | 55% | 1011.3 hPa | 0 mm | - | 29 W/m² | - |
| 1777586243 | 16.67° C | 56% | 1011.4 hPa | 0 mm | - | 26 W/m² | - |
| 1777585941 | 16.67° C | 55% | 1011.4 hPa | 0 mm | - | 28 W/m² | - |
| 1777585636 | 17.22° C | 54% | 1011.4 hPa | 0 mm | - | 37 W/m² | - |
| 1777585331 | 17.78° C | 54% | 1011.3 hPa | 0 mm | - | 212 W/m² | - |
| 1777585026 | 17.78° C | 52% | 1011.3 hPa | 0 mm | - | 240 W/m² | - |
| 1777584723 | 16.67° C | 58% | 1011.5 hPa | 0 mm | - | 311 W/m² | - |
| 1777584421 | 16.67° C | 56% | 1011.2 hPa | 0 mm | - | 87 W/m² | - |
| 1777584117 | 16.67° C | 57% | 1011.4 hPa | 0 mm | - | 57 W/m² | - |
| 1777583816 | 16.67° C | 56% | 1011.1 hPa | 0 mm | - | 46 W/m² | - |
| 1777583511 | 16.67° C | 55% | 1011.3 hPa | 0 mm | - | 67 W/m² | - |
| 1777583205 | 16.67° C | 59% | 1011.3 hPa | 0 mm | - | 70 W/m² | - |
| 1777582901 | 16.67° C | 57% | 1011.1 hPa | 0 mm | - | 60 W/m² | - |
| 1777582599 | 17.22° C | 57% | 1011.2 hPa | 0 mm | - | 83 W/m² | - |
| 1777582299 | 17.22° C | 59% | 1011.1 hPa | 0 mm | - | 112 W/m² | - |
| 1777581997 | 16.67° C | 60% | 1011 hPa | 0 mm | - | 156 W/m² | - |
| 1777581692 | 16.67° C | 59% | 1011 hPa | 0 mm | - | 101 W/m² | - |
| 1777581387 | 16.11° C | 60% | 1010.9 hPa | 0 mm | - | 108 W/m² | - |
* Rain latest hour (hover to see other rain measurements)
** Current wind speed in m/s (hover to see current wind gust speed)